createdAt,value
2023-02-02T00:01:29.471Z,98.01
2023-02-02T00:03:57.090Z,98.71
2023-02-02T00:06:25.294Z,98.17
2023-02-02T00:08:52.476Z,98.32
2023-02-02T00:11:20.166Z,98.40
2023-02-02T00:13:46.831Z,98.45
2023-02-02T00:16:29.098Z,98.26
2023-02-02T00:19:17.602Z,98.11
2023-02-02T00:21:44.976Z,98.66
2023-02-02T00:24:13.757Z,98.60
2023-02-02T00:26:42.210Z,98.71
2023-02-02T00:29:14.723Z,98.63
2023-02-02T00:31:41.263Z,99.21
2023-02-02T00:34:07.870Z,98.96
2023-02-02T00:36:34.296Z,99.03
2023-02-02T00:39:00.773Z,98.75
2023-02-02T00:41:27.279Z,98.92
2023-02-02T00:44:12.496Z,99.10
2023-02-02T00:46:40.226Z,99.06
2023-02-02T00:49:07.259Z,99.25
2023-02-02T00:51:34.346Z,99.52
2023-02-02T00:54:00.840Z,99.32
2023-02-02T00:56:27.486Z,99.79
2023-02-02T00:58:54.082Z,99.87
2023-02-02T01:01:22.082Z,99.46
2023-02-02T01:03:50.106Z,99.15
2023-02-02T01:06:17.908Z,99.25
2023-02-02T01:08:44.675Z,99.79
2023-02-02T01:11:11.211Z,99.46
2023-02-02T01:13:37.710Z,99.14
2023-02-02T01:16:05.155Z,99.46
2023-02-02T01:18:32.262Z,99.24
2023-02-02T01:21:09.503Z,98.99
2023-02-02T01:23:37.209Z,98.43
2023-02-02T01:26:06.556Z,98.58
2023-02-02T01:28:33.759Z,97.89
2023-02-02T01:31:10.784Z,97.77
2023-02-02T01:33:37.671Z,97.91
2023-02-02T01:36:07.819Z,98.00
2023-02-02T01:38:35.021Z,98.12
2023-02-02T01:41:04.642Z,98.52
2023-02-02T01:43:43.139Z,98.49
2023-02-02T01:46:29.898Z,98.51
2023-02-02T01:49:15.992Z,98.93
2023-02-02T01:51:51.251Z,99.29
2023-02-02T01:54:26.345Z,99.17
2023-02-02T01:57:01.580Z,99.61
2023-02-02T01:59:30.510Z,99.21
2023-02-02T02:01:59.084Z,98.98
2023-02-02T02:04:27.899Z,99.89
2023-02-02T02:06:54.631Z,100.00
2023-02-02T02:09:21.213Z,99.93
2023-02-02T02:11:48.326Z,100.00
2023-02-02T02:14:34.605Z,100.00
2023-02-02T02:17:31.885Z,100.00
2023-02-02T02:20:50.833Z,100.00
2023-02-02T02:23:54.307Z,100.00
2023-02-02T02:26:42.691Z,100.00
2023-02-02T02:29:21.387Z,100.00
2023-02-02T02:31:57.047Z,100.00
2023-02-02T02:34:32.550Z,100.00
2023-02-02T02:37:12.206Z,100.00
2023-02-02T02:39:45.828Z,100.00
2023-02-02T02:42:21.080Z,100.00
2023-02-02T02:44:49.874Z,100.00
2023-02-02T02:47:18.038Z,100.00
2023-02-02T02:49:49.181Z,100.00
2023-02-02T02:52:15.943Z,100.00
2023-02-02T02:55:01.799Z,100.00
2023-02-02T02:58:02.312Z,100.00
2023-02-02T03:00:57.543Z,100.00
2023-02-02T03:03:42.173Z,100.00
2023-02-02T03:06:12.691Z,100.00
2023-02-02T03:08:46.619Z,100.00
2023-02-02T03:11:15.214Z,100.00
2023-02-02T03:13:43.265Z,100.00
2023-02-02T03:16:10.666Z,100.00
2023-02-02T03:18:37.713Z,99.99
2023-02-02T03:21:04.425Z,100.00
2023-02-02T03:23:30.950Z,99.69
2023-02-02T03:25:57.439Z,100.00
2023-02-02T03:28:25.236Z,99.50
2023-02-02T03:30:53.648Z,99.17
2023-02-02T03:33:20.814Z,98.99
2023-02-02T03:35:47.488Z,99.32
2023-02-02T03:38:14.021Z,99.22
2023-02-02T03:40:40.772Z,99.70
2023-02-02T03:43:07.258Z,99.15
2023-02-02T03:45:37.379Z,99.12
2023-02-02T03:48:05.218Z,99.24
2023-02-02T03:50:31.919Z,98.99
2023-02-02T03:52:58.356Z,99.29
2023-02-02T03:55:25.130Z,98.94
2023-02-02T03:57:51.858Z,98.79
2023-02-02T04:00:18.772Z,98.62
2023-02-02T04:02:45.323Z,98.08
2023-02-02T04:05:11.941Z,97.80
2023-02-02T04:07:38.399Z,98.20
2023-02-02T04:10:05.491Z,98.30
2023-02-02T04:12:32.028Z,98.61
2023-02-02T04:14:58.665Z,98.38
2023-02-02T04:17:25.279Z,97.98
2023-02-02T04:19:58.060Z,97.63
2023-02-02T04:22:26.060Z,97.64
2023-02-02T04:24:52.689Z,98.03
2023-02-02T04:27:19.662Z,98.08
2023-02-02T04:29:46.235Z,97.79
2023-02-02T04:32:15.379Z,97.79
2023-02-02T04:34:42.359Z,97.64
2023-02-02T04:37:09.280Z,97.54
2023-02-02T04:39:35.809Z,97.36
2023-02-02T04:42:02.838Z,97.71
2023-02-02T04:44:29.373Z,97.38
2023-02-02T04:46:55.874Z,96.89
2023-02-02T04:49:22.405Z,96.76
2023-02-02T04:51:50.380Z,96.79
2023-02-02T04:54:16.864Z,96.77
2023-02-02T04:56:43.331Z,96.51
2023-02-02T04:59:09.967Z,96.33
2023-02-02T05:01:36.406Z,96.47
2023-02-02T05:04:02.916Z,96.27
2023-02-02T05:06:29.480Z,96.26
2023-02-02T05:08:55.959Z,96.05
2023-02-02T05:11:24.217Z,95.93
2023-02-02T05:13:54.683Z,95.65
2023-02-02T05:16:22.890Z,95.77
2023-02-02T05:18:54.814Z,95.85
2023-02-02T05:21:22.223Z,95.99
2023-02-02T05:23:48.676Z,95.47
2023-02-02T05:26:21.504Z,95.73
2023-02-02T05:28:48.592Z,95.88
2023-02-02T05:31:16.904Z,95.69
2023-02-02T05:33:43.723Z,95.88
2023-02-02T05:36:10.907Z,96.18
2023-02-02T05:38:37.974Z,96.24
2023-02-02T05:41:05.090Z,96.31
2023-02-02T05:43:32.854Z,96.22
2023-02-02T05:45:59.933Z,96.39
2023-02-02T05:48:27.303Z,96.44
2023-02-02T05:51:05.966Z,96.41
2023-02-02T05:53:33.052Z,96.19
2023-02-02T05:55:59.865Z,96.47
2023-02-02T05:58:26.426Z,96.62
2023-02-02T06:00:55.027Z,97.06
2023-02-02T06:03:23.133Z,96.77
2023-02-02T06:05:49.781Z,96.80
2023-02-02T06:08:16.330Z,97.24
2023-02-02T06:10:42.899Z,97.21
2023-02-02T06:13:09.682Z,97.42
2023-02-02T06:15:36.853Z,97.91
2023-02-02T06:18:04.994Z,97.70
2023-02-02T06:20:31.589Z,98.11
2023-02-02T06:22:58.092Z,97.92
2023-02-02T06:25:24.930Z,98.41
2023-02-02T06:27:56.204Z,98.48
2023-02-02T06:30:22.761Z,98.60
2023-02-02T06:32:49.287Z,98.74
2023-02-02T06:35:16.006Z,98.56
2023-02-02T06:37:42.730Z,98.89
2023-02-02T06:40:09.990Z,99.02
2023-02-02T06:42:36.552Z,99.27
2023-02-02T06:45:04.362Z,99.31
2023-02-02T06:47:33.320Z,100.00
2023-02-02T06:49:59.872Z,99.58
2023-02-02T06:52:26.792Z,100.00
2023-02-02T06:54:53.343Z,99.78
2023-02-02T06:57:19.994Z,99.84
2023-02-02T06:59:47.235Z,99.87
2023-02-02T07:02:14.026Z,100.00
2023-02-02T07:04:40.596Z,100.00
2023-02-02T07:07:07.113Z,100.00
2023-02-02T07:09:35.000Z,100.00
2023-02-02T07:12:01.583Z,100.00
2023-02-02T07:14:28.160Z,100.00
2023-02-02T07:16:54.595Z,100.00
2023-02-02T07:19:21.158Z,100.00
2023-02-02T07:21:47.660Z,100.00
2023-02-02T07:24:14.206Z,100.00
2023-02-02T07:26:40.926Z,100.00
2023-02-02T07:29:07.561Z,100.00
2023-02-02T07:31:36.321Z,100.00
2023-02-02T07:34:03.538Z,100.00
2023-02-02T07:36:30.119Z,100.00
2023-02-02T07:38:59.802Z,100.00
2023-02-02T07:41:27.858Z,100.00
2023-02-02T07:43:54.363Z,100.00
2023-02-02T07:46:20.999Z,100.00
2023-02-02T07:48:47.954Z,100.00
2023-02-02T07:51:18.308Z,100.00
2023-02-02T07:53:46.583Z,100.00
2023-02-02T07:56:18.901Z,100.00
2023-02-02T07:58:46.210Z,99.99
2023-02-02T08:01:15.000Z,99.51
2023-02-02T08:03:43.205Z,99.57
2023-02-02T08:06:13.087Z,99.28
2023-02-02T08:08:39.955Z,99.17
2023-02-02T08:11:10.071Z,99.14
2023-02-02T08:13:36.745Z,98.82
2023-02-02T08:16:03.482Z,98.82
2023-02-02T08:18:30.115Z,98.57
2023-02-02T08:21:01.301Z,98.40
2023-02-02T08:23:28.467Z,98.33
2023-02-02T08:26:04.938Z,98.50
2023-02-02T08:28:31.478Z,97.80
2023-02-02T08:31:03.625Z,97.73
2023-02-02T08:33:30.250Z,97.54
2023-02-02T08:35:56.739Z,97.74
2023-02-02T08:38:25.243Z,97.34
2023-02-02T08:40:52.607Z,97.20
2023-02-02T08:43:19.113Z,97.44
2023-02-02T08:46:01.460Z,96.68
2023-02-02T08:48:30.084Z,96.10
2023-02-02T08:50:58.611Z,96.41
2023-02-02T08:53:26.661Z,96.26
2023-02-02T08:56:00.166Z,96.03
2023-02-02T08:58:27.432Z,96.07
2023-02-02T09:00:54.798Z,95.38
2023-02-02T09:03:21.739Z,95.14
2023-02-02T09:05:48.311Z,94.83
2023-02-02T09:08:14.825Z,94.27
2023-02-02T09:10:41.526Z,94.76
2023-02-02T09:13:08.006Z,93.84
2023-02-02T09:15:34.512Z,94.46
2023-02-02T09:18:01.032Z,93.93
2023-02-02T09:20:27.474Z,93.65
2023-02-02T09:22:56.104Z,93.28
2023-02-02T09:25:25.168Z,93.18
2023-02-02T09:27:51.964Z,92.88
2023-02-02T09:30:19.091Z,92.83
2023-02-02T09:32:49.156Z,92.88
2023-02-02T09:35:15.787Z,92.18
2023-02-02T09:37:44.169Z,92.37
2023-02-02T09:40:17.811Z,92.38
2023-02-02T09:42:55.196Z,92.99
2023-02-02T09:45:31.792Z,93.20
2023-02-02T09:48:14.934Z,93.04
2023-02-02T09:50:51.190Z,93.03
2023-02-02T09:53:25.412Z,92.68
2023-02-02T09:55:53.986Z,93.26
2023-02-02T09:58:32.822Z,93.12
2023-02-02T10:01:16.288Z,93.32
2023-02-02T10:04:21.105Z,93.49
2023-02-02T10:06:54.130Z,93.33
2023-02-02T10:09:40.489Z,93.08
2023-02-02T10:12:16.066Z,93.21
2023-02-02T10:14:54.292Z,92.28
2023-02-02T10:17:20.757Z,92.46
2023-02-02T10:19:50.522Z,92.77
2023-02-02T10:22:27.803Z,92.84
2023-02-02T10:24:57.018Z,92.37
2023-02-02T10:27:38.809Z,92.66
2023-02-02T10:30:29.089Z,92.49
2023-02-02T10:33:06.269Z,92.01
2023-02-02T10:35:45.439Z,91.71
2023-02-02T10:38:22.546Z,91.80
2023-02-02T10:41:07.454Z,91.77
2023-02-02T10:43:57.481Z,91.49
2023-02-02T10:46:40.325Z,92.58
2023-02-02T10:49:28.490Z,91.94
2023-02-02T10:52:02.334Z,91.87
2023-02-02T10:54:55.918Z,92.41
2023-02-02T10:57:34.086Z,92.15
2023-02-02T11:00:22.930Z,91.92
2023-02-02T11:02:51.384Z,91.89
2023-02-02T11:05:42.335Z,92.00
2023-02-02T11:08:33.095Z,92.19
2023-02-02T11:11:11.520Z,91.82
2023-02-02T11:13:47.924Z,91.57
2023-02-02T11:16:14.538Z,91.69
2023-02-02T11:18:44.146Z,90.83
2023-02-02T11:21:30.075Z,90.60
2023-02-02T11:24:02.893Z,90.65
2023-02-02T11:26:49.062Z,90.65
2023-02-02T11:29:22.678Z,90.66
2023-02-02T11:31:49.378Z,90.12
2023-02-02T11:34:20.386Z,90.38
2023-02-02T11:37:02.455Z,90.00
2023-02-02T11:39:29.417Z,90.23
2023-02-02T11:42:01.612Z,90.28
2023-02-02T11:44:32.393Z,89.32
2023-02-02T11:47:00.715Z,89.50
2023-02-02T11:49:28.310Z,89.42
2023-02-02T11:52:04.766Z,90.20
2023-02-02T11:54:37.166Z,89.66
2023-02-02T11:57:08.556Z,89.98
2023-02-02T11:59:42.266Z,89.68
2023-02-02T12:02:32.032Z,89.46
2023-02-02T12:05:20.074Z,89.16
2023-02-02T12:07:48.102Z,89.03
2023-02-02T12:10:27.195Z,89.03
2023-02-02T12:13:32.336Z,89.25
2023-02-02T12:16:37.258Z,88.66
2023-02-02T12:19:06.467Z,88.85
2023-02-02T12:21:36.132Z,90.09
2023-02-02T12:24:31.245Z,89.84
2023-02-02T12:27:07.831Z,89.85
2023-02-02T12:29:43.195Z,89.70
2023-02-02T12:32:26.978Z,90.29
2023-02-02T12:35:21.390Z,89.98
2023-02-02T12:38:12.085Z,89.95
2023-02-02T12:40:57.063Z,90.02
2023-02-02T12:43:45.390Z,90.38
2023-02-02T12:46:45.841Z,90.19
2023-02-02T12:49:30.947Z,90.79
2023-02-02T12:52:09.019Z,90.33
2023-02-02T12:54:56.816Z,90.74
2023-02-02T12:57:51.040Z,90.21
2023-02-02T13:00:53.248Z,90.85
2023-02-02T13:03:28.162Z,91.67
2023-02-02T13:06:16.697Z,91.49
2023-02-02T13:08:56.081Z,92.59
2023-02-02T13:11:51.442Z,92.89
2023-02-02T13:14:24.904Z,93.30
2023-02-02T13:16:55.090Z,94.08
2023-02-02T13:19:48.926Z,94.33
2023-02-02T13:22:39.151Z,94.44
2023-02-02T13:25:15.237Z,95.04
2023-02-02T13:27:43.477Z,95.65
2023-02-02T13:30:27.295Z,95.77
2023-02-02T13:32:58.160Z,96.01
2023-02-02T13:35:42.991Z,96.57
2023-02-02T13:38:26.343Z,96.82
2023-02-02T13:40:55.850Z,97.03
2023-02-02T13:43:35.053Z,97.11
2023-02-02T13:46:30.290Z,97.41
2023-02-02T13:49:26.478Z,97.28
2023-02-02T13:52:13.945Z,98.06
2023-02-02T13:54:40.482Z,98.51
2023-02-02T13:57:41.867Z,97.93
2023-02-02T14:00:20.597Z,98.00
2023-02-02T14:02:51.304Z,98.08
2023-02-02T14:05:40.040Z,97.66
2023-02-02T14:08:08.529Z,97.99
2023-02-02T14:10:56.525Z,98.26
2023-02-02T14:13:55.131Z,98.01
2023-02-02T14:16:47.877Z,98.94
2023-02-02T14:19:41.713Z,98.81
2023-02-02T14:22:14.727Z,98.14
2023-02-02T14:24:44.048Z,98.74
2023-02-02T14:27:10.657Z,98.39
2023-02-02T14:29:47.129Z,99.59
2023-02-02T14:32:29.183Z,99.07
2023-02-02T14:35:01.540Z,99.62
2023-02-02T14:37:41.714Z,99.98
2023-02-02T14:40:08.705Z,99.73
2023-02-02T14:43:06.185Z,99.97
2023-02-02T14:45:50.115Z,99.58
2023-02-02T14:48:20.428Z,99.58
2023-02-02T14:50:53.380Z,100.00
2023-02-02T14:53:28.517Z,100.00
2023-02-02T14:56:04.049Z,100.00
2023-02-02T14:58:34.191Z,100.00
2023-02-02T15:01:25.219Z,100.00
2023-02-02T15:04:00.908Z,100.00
2023-02-02T15:06:36.387Z,100.00
2023-02-02T15:09:26.579Z,100.00
2023-02-02T15:12:01.111Z,100.00
2023-02-02T15:14:36.090Z,100.00
2023-02-02T15:17:24.431Z,100.00
2023-02-02T15:20:21.126Z,100.00
2023-02-02T15:23:08.164Z,100.00
2023-02-02T15:25:40.763Z,100.00
2023-02-02T15:28:17.705Z,100.00
2023-02-02T15:30:48.383Z,100.00
2023-02-02T15:33:36.756Z,100.00
2023-02-02T15:36:12.322Z,100.00
2023-02-02T15:38:41.865Z,100.00
2023-02-02T15:41:20.187Z,100.00
2023-02-02T15:43:47.275Z,100.00
2023-02-02T15:46:24.566Z,100.00
2023-02-02T15:49:33.142Z,100.00
2023-02-02T15:52:03.236Z,100.00
2023-02-02T15:54:32.751Z,100.00
2023-02-02T15:57:01.342Z,100.00
2023-02-02T15:59:30.974Z,100.00
2023-02-02T16:02:05.552Z,100.00
2023-02-02T16:04:42.668Z,100.00
2023-02-02T16:07:27.826Z,100.00
2023-02-02T16:09:54.430Z,100.00
2023-02-02T16:12:22.819Z,100.00
2023-02-02T16:14:54.976Z,100.00
2023-02-02T16:17:30.173Z,100.00
2023-02-02T16:20:08.537Z,100.00
2023-02-02T16:22:37.687Z,100.00
2023-02-02T16:25:15.656Z,100.00
2023-02-02T16:27:46.218Z,100.00
2023-02-02T16:30:25.266Z,100.00
2023-02-02T16:32:51.987Z,100.00
2023-02-02T16:35:32.994Z,100.00
2023-02-02T16:38:35.816Z,100.00
2023-02-02T16:41:11.502Z,100.00
2023-02-02T16:43:40.350Z,100.00
2023-02-02T16:46:10.893Z,100.00
2023-02-02T16:48:39.597Z,100.00
2023-02-02T16:51:18.921Z,100.00
2023-02-02T16:54:13.593Z,100.00
2023-02-02T16:56:50.580Z,100.00
2023-02-02T16:59:27.229Z,100.00
2023-02-02T17:02:00.955Z,100.00
2023-02-02T17:04:34.101Z,100.00
2023-02-02T17:07:13.602Z,100.00
2023-02-02T17:09:45.591Z,100.00
2023-02-02T17:12:34.916Z,100.00
2023-02-02T17:15:23.782Z,100.00
2023-02-02T17:17:51.924Z,100.00
2023-02-02T17:20:19.722Z,100.00
2023-02-02T17:22:57.572Z,100.00
2023-02-02T17:25:44.473Z,100.00
2023-02-02T17:28:14.109Z,100.00
2023-02-02T17:30:42.522Z,100.00
2023-02-02T17:33:16.664Z,100.00
2023-02-02T17:35:54.810Z,100.00
2023-02-02T17:38:23.421Z,100.00
2023-02-02T17:40:50.625Z,100.00
2023-02-02T17:43:17.174Z,100.00
2023-02-02T17:45:43.741Z,100.00
2023-02-02T17:48:14.220Z,100.00
2023-02-02T17:50:42.404Z,100.00
2023-02-02T17:53:13.751Z,100.00
2023-02-02T17:55:42.470Z,100.00
2023-02-02T17:58:10.584Z,100.00
2023-02-02T18:00:38.888Z,100.00
2023-02-02T18:03:26.818Z,100.00
2023-02-02T18:05:53.452Z,100.00
2023-02-02T18:08:20.275Z,100.00
2023-02-02T18:10:46.954Z,100.00
2023-02-02T18:13:19.435Z,100.00
2023-02-02T18:15:46.532Z,100.00
2023-02-02T18:18:13.121Z,100.00
2023-02-02T18:20:44.278Z,100.00
2023-02-02T18:23:11.574Z,100.00
2023-02-02T18:25:39.269Z,100.00
2023-02-02T18:28:08.365Z,100.00
2023-02-02T18:30:37.438Z,100.00
2023-02-02T18:33:04.067Z,100.00
2023-02-02T18:35:30.590Z,100.00
2023-02-02T18:37:58.096Z,100.00
2023-02-02T18:40:24.639Z,100.00
2023-02-02T18:42:51.252Z,100.00
2023-02-02T18:45:17.841Z,100.00
2023-02-02T18:47:44.324Z,100.00
2023-02-02T18:50:11.001Z,100.00
2023-02-02T18:52:37.515Z,100.00
2023-02-02T18:55:04.155Z,100.00
2023-02-02T18:57:30.711Z,100.00
2023-02-02T18:59:57.224Z,100.00
2023-02-02T19:02:25.505Z,100.00
2023-02-02T19:05:10.647Z,100.00
2023-02-02T19:07:55.168Z,100.00
2023-02-02T19:10:23.738Z,100.00
2023-02-02T19:12:55.816Z,100.00
2023-02-02T19:15:23.019Z,100.00
2023-02-02T19:17:52.426Z,100.00
2023-02-02T19:20:28.870Z,100.00
2023-02-02T19:23:19.708Z,100.00
2023-02-02T19:25:51.396Z,100.00
2023-02-02T19:28:30.006Z,100.00
2023-02-02T19:30:59.159Z,100.00
2023-02-02T19:33:40.058Z,100.00
2023-02-02T19:36:14.924Z,100.00
2023-02-02T19:38:41.430Z,100.00
2023-02-02T19:41:20.058Z,100.00
2023-02-02T19:43:47.884Z,100.00
2023-02-02T19:46:23.108Z,100.00
2023-02-02T19:48:52.699Z,100.00
2023-02-02T19:51:44.578Z,100.00
2023-02-02T19:54:34.129Z,100.00
2023-02-02T19:57:10.841Z,100.00
2023-02-02T19:59:37.378Z,100.00
2023-02-02T20:02:41.546Z,100.00
2023-02-02T20:05:11.201Z,100.00
2023-02-02T20:07:41.109Z,100.00
2023-02-02T20:10:18.939Z,100.00
2023-02-02T20:12:45.445Z,100.00
2023-02-02T20:15:32.458Z,100.00
2023-02-02T20:18:01.926Z,100.00
2023-02-02T20:20:43.905Z,100.00
2023-02-02T20:23:35.663Z,100.00
2023-02-02T20:26:07.888Z,100.00
2023-02-02T20:28:44.979Z,100.00
2023-02-02T20:31:18.019Z,100.00
2023-02-02T20:33:47.791Z,100.00
2023-02-02T20:36:27.124Z,100.00
2023-02-02T20:38:53.802Z,100.00
2023-02-02T20:41:20.295Z,100.00
2023-02-02T20:43:46.813Z,100.00
2023-02-02T20:46:14.767Z,100.00
2023-02-02T20:48:41.753Z,100.00
2023-02-02T20:51:08.267Z,100.00
2023-02-02T20:53:35.316Z,100.00
2023-02-02T20:56:02.885Z,100.00
2023-02-02T20:58:29.403Z,100.00
2023-02-02T21:00:56.048Z,100.00
2023-02-02T21:03:22.755Z,100.00
2023-02-02T21:05:49.323Z,100.00
2023-02-02T21:08:15.868Z,100.00
2023-02-02T21:10:42.371Z,100.00
2023-02-02T21:13:08.941Z,100.00
2023-02-02T21:15:35.381Z,100.00
2023-02-02T21:18:01.898Z,100.00
2023-02-02T21:20:28.678Z,100.00
2023-02-02T21:22:56.767Z,100.00
2023-02-02T21:25:23.292Z,100.00
2023-02-02T21:27:49.941Z,100.00
2023-02-02T21:30:16.543Z,100.00
2023-02-02T21:32:44.127Z,100.00
2023-02-02T21:35:11.149Z,100.00
2023-02-02T21:37:40.546Z,100.00
2023-02-02T21:40:13.478Z,100.00
2023-02-02T21:42:45.400Z,100.00
2023-02-02T21:45:21.200Z,100.00
2023-02-02T21:47:52.577Z,100.00
2023-02-02T21:50:24.455Z,100.00
2023-02-02T21:52:51.273Z,100.00
2023-02-02T21:55:29.972Z,100.00
2023-02-02T21:57:59.111Z,100.00
2023-02-02T22:00:32.446Z,100.00
2023-02-02T22:02:59.821Z,100.00
2023-02-02T22:05:35.563Z,100.00
2023-02-02T22:08:18.468Z,100.00
2023-02-02T22:10:45.479Z,100.00
2023-02-02T22:13:20.215Z,100.00
2023-02-02T22:15:49.340Z,100.00
2023-02-02T22:18:22.781Z,100.00
2023-02-02T22:20:51.001Z,100.00
2023-02-02T22:23:20.232Z,100.00
2023-02-02T22:25:48.785Z,100.00
2023-02-02T22:28:32.962Z,100.00
2023-02-02T22:31:00.707Z,99.92
2023-02-02T22:33:27.711Z,100.00
2023-02-02T22:35:54.606Z,100.00
2023-02-02T22:38:24.081Z,99.98
2023-02-02T22:40:52.042Z,99.96
2023-02-02T22:43:20.472Z,100.00
2023-02-02T22:45:47.957Z,99.77
2023-02-02T22:48:15.362Z,100.00
2023-02-02T22:50:42.325Z,99.87
2023-02-02T22:53:08.913Z,100.00
2023-02-02T22:55:35.400Z,99.80
2023-02-02T22:58:01.923Z,99.82
2023-02-02T23:00:32.152Z,99.49
2023-02-02T23:02:59.085Z,99.83
2023-02-02T23:05:26.569Z,99.71
2023-02-02T23:07:53.818Z,99.78
2023-02-02T23:10:26.381Z,99.36
2023-02-02T23:12:55.171Z,100.00
2023-02-02T23:15:22.492Z,99.59
2023-02-02T23:17:49.332Z,99.36
2023-02-02T23:20:16.612Z,99.43
2023-02-02T23:22:43.473Z,99.49
2023-02-02T23:25:10.870Z,99.74
2023-02-02T23:27:37.809Z,99.58
2023-02-02T23:30:05.934Z,99.19
2023-02-02T23:32:32.439Z,99.07
2023-02-02T23:34:59.019Z,99.24
2023-02-02T23:37:25.663Z,99.46
2023-02-02T23:39:52.190Z,99.10
2023-02-02T23:42:18.707Z,99.23
2023-02-02T23:44:45.183Z,98.50
2023-02-02T23:47:11.878Z,99.17
2023-02-02T23:49:38.734Z,99.20
2023-02-02T23:52:06.057Z,99.04
2023-02-02T23:54:33.203Z,99.11
2023-02-02T23:57:00.011Z,98.13
2023-02-02T23:59:26.529Z,98.46
